createdAt,value
2019-03-06T00:02:10.050Z,6.00
2019-03-06T00:04:40.346Z,5.80
2019-03-06T00:07:09.991Z,5.37
2019-03-06T00:09:39.905Z,5.33
2019-03-06T00:12:09.890Z,6.05
2019-03-06T00:14:39.720Z,5.70
2019-03-06T00:17:09.811Z,6.25
2019-03-06T00:19:39.977Z,5.43
2019-03-06T00:22:09.692Z,6.63
2019-03-06T00:24:39.639Z,6.87
2019-03-06T00:27:10.557Z,6.80
2019-03-06T00:29:40.409Z,6.35
2019-03-06T00:32:10.174Z,5.73
2019-03-06T00:34:40.769Z,5.65
2019-03-06T00:37:10.423Z,6.23
2019-03-06T00:39:50.831Z,5.50
2019-03-06T00:42:20.720Z,6.87
2019-03-06T00:44:50.772Z,6.67
2019-03-06T00:47:20.418Z,7.80
2019-03-06T00:49:50.081Z,7.50
2019-03-06T00:52:19.871Z,7.65
2019-03-06T00:54:50.026Z,7.27
2019-03-06T00:57:20.011Z,7.60
2019-03-06T00:59:49.866Z,7.20
2019-03-06T01:02:19.512Z,7.97
2019-03-06T01:04:49.695Z,7.90
2019-03-06T01:07:19.496Z,9.40
2019-03-06T01:09:49.459Z,8.30
2019-03-06T01:12:19.191Z,11.18
2019-03-06T01:14:48.860Z,9.03
2019-03-06T01:17:18.566Z,9.57
2019-03-06T01:19:48.368Z,8.50
2019-03-06T01:22:18.087Z,10.82
2019-03-06T01:24:47.756Z,9.13
2019-03-06T01:27:17.418Z,10.90
2019-03-06T01:29:47.334Z,10.53
2019-03-06T01:32:17.291Z,9.90
2019-03-06T01:34:56.792Z,11.67
2019-03-06T01:37:35.414Z,10.77
2019-03-06T01:40:20.967Z,9.03
2019-03-06T01:43:01.716Z,9.17
2019-03-06T01:45:31.382Z,9.27
2019-03-06T01:48:01.290Z,11.33
2019-03-06T01:50:32.247Z,8.73
2019-03-06T01:53:02.238Z,8.88
2019-03-06T01:55:32.648Z,12.83
2019-03-06T01:58:02.775Z,7.63
2019-03-06T02:00:33.727Z,8.67
2019-03-06T02:03:03.387Z,7.70
2019-03-06T02:05:33.543Z,8.30
2019-03-06T02:08:03.376Z,7.93
2019-03-06T02:10:33.942Z,8.10
2019-03-06T02:13:04.627Z,12.70
2019-03-06T02:15:34.302Z,8.68
2019-03-06T02:18:04.557Z,9.40
2019-03-06T02:20:34.469Z,9.17
2019-03-06T02:23:04.667Z,10.03
2019-03-06T02:25:34.332Z,9.73
2019-03-06T02:28:06.237Z,12.00
2019-03-06T02:30:36.170Z,10.73
2019-03-06T02:33:06.268Z,11.20
2019-03-06T02:35:35.949Z,12.30
2019-03-06T02:38:05.745Z,8.10
2019-03-06T02:40:35.683Z,10.73
2019-03-06T02:43:05.330Z,9.27
2019-03-06T02:45:35.318Z,11.63
2019-03-06T02:48:05.126Z,9.80
2019-03-06T02:50:34.796Z,8.07
2019-03-06T02:53:04.534Z,9.17
2019-03-06T02:55:34.267Z,9.07
2019-03-06T02:58:12.173Z,9.70
2019-03-06T03:00:59.577Z,10.83
2019-03-06T03:03:57.452Z,11.97
2019-03-06T03:06:32.742Z,11.00
2019-03-06T03:09:02.467Z,10.30
2019-03-06T03:11:33.835Z,10.77
2019-03-06T03:14:03.881Z,12.33
2019-03-06T03:16:33.734Z,12.15
2019-03-06T03:19:03.464Z,11.40
2019-03-06T03:21:33.118Z,10.40
2019-03-06T03:24:02.777Z,9.45
2019-03-06T03:26:32.501Z,10.32
2019-03-06T03:29:02.166Z,11.07
2019-03-06T03:31:31.803Z,9.50
2019-03-06T03:34:01.477Z,10.53
2019-03-06T03:36:31.138Z,13.90
2019-03-06T03:39:00.805Z,8.80
2019-03-06T03:41:32.099Z,12.00
2019-03-06T03:44:02.116Z,12.40
2019-03-06T03:46:31.781Z,9.10
2019-03-06T03:49:02.515Z,10.18
2019-03-06T03:51:32.834Z,11.00
2019-03-06T03:54:02.461Z,11.33
2019-03-06T03:56:32.138Z,12.30
2019-03-06T03:59:01.827Z,10.25
2019-03-06T04:01:31.695Z,10.25
2019-03-06T04:04:01.542Z,11.80
2019-03-06T04:06:31.554Z,12.13
2019-03-06T04:09:01.754Z,11.48
2019-03-06T04:11:33.049Z,12.23
2019-03-06T04:14:03.760Z,13.03
2019-03-06T04:16:34.013Z,10.88
2019-03-06T04:19:03.850Z,12.30
2019-03-06T04:21:33.533Z,10.77
2019-03-06T04:24:03.333Z,11.00
2019-03-06T04:26:33.011Z,14.23
2019-03-06T04:29:02.759Z,11.43
2019-03-06T04:31:32.413Z,15.53
2019-03-06T04:34:02.088Z,14.33
2019-03-06T04:36:31.782Z,11.23
2019-03-06T04:39:01.419Z,17.20
2019-03-06T04:41:32.811Z,17.43
2019-03-06T04:44:02.537Z,24.30
2019-03-06T04:46:32.673Z,43.48
2019-03-06T04:49:03.350Z,51.40
2019-03-06T04:51:33.012Z,38.83
2019-03-06T04:54:02.763Z,37.23
2019-03-06T04:56:32.493Z,22.17
2019-03-06T04:59:02.224Z,15.67
2019-03-06T05:01:31.897Z,12.37
2019-03-06T05:04:01.914Z,14.73
2019-03-06T05:06:31.583Z,13.60
2019-03-06T05:09:01.895Z,10.05
2019-03-06T05:11:33.270Z,16.48
2019-03-06T05:14:02.949Z,26.77
2019-03-06T05:16:49.178Z,133.23
2019-03-06T05:19:19.509Z,498.13
2019-03-06T05:21:49.179Z,633.10
2019-03-06T05:24:18.861Z,191.43
2019-03-06T05:26:48.539Z,65.77
2019-03-06T05:29:18.209Z,21.77
2019-03-06T05:32:23.872Z,35.23
2019-03-06T05:34:53.905Z,48.40
2019-03-06T05:37:55.708Z,63.93
2019-03-06T05:40:25.452Z,37.10
2019-03-06T05:42:55.122Z,15.03
2019-03-06T05:45:24.856Z,17.23
2019-03-06T05:47:54.537Z,15.43
2019-03-06T05:50:25.406Z,15.03
2019-03-06T05:52:56.375Z,11.45
2019-03-06T05:55:26.392Z,12.57
2019-03-06T05:57:56.057Z,13.07
2019-03-06T06:00:27.447Z,10.43
2019-03-06T06:02:57.109Z,14.93
2019-03-06T06:05:26.779Z,10.28
2019-03-06T06:07:56.436Z,9.70
2019-03-06T06:10:26.100Z,9.67
2019-03-06T06:12:55.783Z,10.60
2019-03-06T06:15:25.465Z,11.80
2019-03-06T06:17:55.377Z,13.57
2019-03-06T06:20:26.023Z,10.00
2019-03-06T06:23:03.954Z,10.43
2019-03-06T06:25:34.487Z,11.85
2019-03-06T06:28:06.934Z,12.03
2019-03-06T06:30:36.712Z,10.95
2019-03-06T06:33:06.530Z,13.83
2019-03-06T06:35:36.203Z,12.98
2019-03-06T06:38:05.857Z,10.43
2019-03-06T06:40:35.822Z,10.63
2019-03-06T06:43:06.659Z,11.00
2019-03-06T06:45:36.509Z,9.83
2019-03-06T06:48:14.623Z,10.90
2019-03-06T06:50:50.641Z,11.43
2019-03-06T06:53:44.673Z,11.67
2019-03-06T06:57:04.785Z,9.97
2019-03-06T06:59:49.878Z,10.50
2019-03-06T07:02:58.758Z,10.90
2019-03-06T07:05:43.683Z,10.58
2019-03-06T07:08:27.898Z,12.03
2019-03-06T07:11:02.604Z,10.37
2019-03-06T07:13:41.364Z,10.33
2019-03-06T07:16:28.435Z,11.97
2019-03-06T07:19:29.063Z,12.30
2019-03-06T07:22:26.878Z,10.90
2019-03-06T07:25:14.607Z,13.13
2019-03-06T07:27:54.659Z,17.70
2019-03-06T07:30:30.324Z,13.93
2019-03-06T07:33:25.485Z,15.33
2019-03-06T07:36:18.715Z,10.43
2019-03-06T07:38:51.670Z,13.23
2019-03-06T07:41:59.642Z,14.33
2019-03-06T07:44:44.590Z,12.63
2019-03-06T07:47:37.092Z,13.50
2019-03-06T07:50:17.597Z,11.00
2019-03-06T07:53:49.611Z,15.03
2019-03-06T07:56:27.405Z,13.03
2019-03-06T07:58:58.123Z,14.90
2019-03-06T08:01:30.125Z,17.53
2019-03-06T08:04:11.252Z,13.03
2019-03-06T08:06:43.303Z,13.37
2019-03-06T08:09:17.134Z,12.33
2019-03-06T08:11:54.468Z,14.63
2019-03-06T08:14:43.966Z,9.83
2019-03-06T08:17:30.769Z,7.93
2019-03-06T08:20:10.248Z,10.17
2019-03-06T08:22:53.188Z,8.50
2019-03-06T08:25:40.462Z,7.10
2019-03-06T08:28:11.449Z,7.17
2019-03-06T08:30:44.093Z,6.07
2019-03-06T08:33:18.264Z,6.73
2019-03-06T08:35:45.268Z,7.03
2019-03-06T08:38:15.007Z,8.23
2019-03-06T08:40:44.905Z,27.00
2019-03-06T08:43:14.725Z,35.50
2019-03-06T08:46:02.493Z,30.43
2019-03-06T08:48:52.577Z,9.60
2019-03-06T08:51:35.511Z,10.20
2019-03-06T08:54:12.982Z,18.63
2019-03-06T08:56:50.852Z,20.23
2019-03-06T08:59:30.265Z,13.00
2019-03-06T09:02:21.591Z,11.43
2019-03-06T09:04:59.123Z,9.80
2019-03-06T09:07:58.909Z,10.63
2019-03-06T09:11:05.768Z,10.73
2019-03-06T09:13:51.854Z,11.97
2019-03-06T09:16:48.013Z,12.68
2019-03-06T09:19:42.407Z,10.40
2019-03-06T09:22:29.348Z,13.83
2019-03-06T09:25:10.411Z,11.25
2019-03-06T09:27:50.929Z,11.50
2019-03-06T09:30:25.334Z,11.13
2019-03-06T09:33:13.999Z,12.00
2019-03-06T09:35:48.994Z,12.03
2019-03-06T09:38:36.163Z,22.48
2019-03-06T09:41:20.813Z,11.67
2019-03-06T09:44:02.934Z,9.83
2019-03-06T09:46:51.063Z,10.43
2019-03-06T09:49:29.785Z,12.37
2019-03-06T09:52:17.901Z,14.55
2019-03-06T09:54:55.474Z,14.78
2019-03-06T09:57:42.670Z,13.10
2019-03-06T10:00:32.757Z,11.67
2019-03-06T10:03:20.055Z,11.77
2019-03-06T10:05:55.704Z,15.00
2019-03-06T10:08:41.159Z,15.67
2019-03-06T10:11:20.215Z,19.37
2019-03-06T10:14:17.986Z,35.83
2019-03-06T10:16:57.209Z,21.25
2019-03-06T10:19:31.113Z,21.57
2019-03-06T10:22:01.023Z,17.53
2019-03-06T10:24:30.746Z,20.93
2019-03-06T10:27:00.694Z,19.20
2019-03-06T10:29:30.648Z,17.83
2019-03-06T10:32:00.313Z,17.50
2019-03-06T10:34:30.161Z,15.30
2019-03-06T10:36:59.888Z,16.43
2019-03-06T10:39:29.548Z,16.77
2019-03-06T10:41:59.215Z,16.47
2019-03-06T10:44:29.826Z,18.07
2019-03-06T10:47:00.089Z,14.43
2019-03-06T10:49:30.135Z,14.37
2019-03-06T10:51:59.884Z,13.40
2019-03-06T10:54:29.871Z,15.18
2019-03-06T10:56:59.630Z,12.90
2019-03-06T10:59:30.593Z,14.77
2019-03-06T11:02:00.257Z,14.23
2019-03-06T11:04:41.458Z,15.90
2019-03-06T11:07:12.490Z,14.87
2019-03-06T11:09:42.443Z,14.10
2019-03-06T11:12:12.286Z,16.33
2019-03-06T11:14:42.144Z,19.52
2019-03-06T11:17:12.045Z,19.20
2019-03-06T11:19:42.298Z,16.82
2019-03-06T11:22:12.031Z,12.90
2019-03-06T11:24:41.780Z,12.40
2019-03-06T11:27:11.604Z,9.63
2019-03-06T11:29:41.408Z,10.15
2019-03-06T11:32:11.314Z,13.63
2019-03-06T11:34:41.126Z,12.20
2019-03-06T11:37:10.896Z,15.27
2019-03-06T11:39:40.666Z,15.60
2019-03-06T11:42:10.329Z,12.93
2019-03-06T11:44:40.095Z,15.97
2019-03-06T11:47:09.836Z,15.63
2019-03-06T11:49:39.678Z,17.13
2019-03-06T11:52:09.435Z,17.50
2019-03-06T11:54:40.070Z,20.40
2019-03-06T11:57:09.806Z,23.15
2019-03-06T11:59:39.648Z,28.55
2019-03-06T12:02:10.055Z,32.53
2019-03-06T12:04:40.104Z,30.87
2019-03-06T12:07:09.835Z,31.27
2019-03-06T12:09:39.834Z,29.23
2019-03-06T12:12:09.838Z,33.77
2019-03-06T12:14:40.154Z,27.73
2019-03-06T12:17:09.908Z,30.50
2019-03-06T12:19:39.975Z,33.58
2019-03-06T12:22:09.629Z,25.10
2019-03-06T12:24:39.303Z,25.43
2019-03-06T12:27:09.039Z,25.13
2019-03-06T12:29:38.713Z,18.47
2019-03-06T12:32:08.525Z,17.40
2019-03-06T12:34:38.273Z,21.30
2019-03-06T12:37:08.014Z,15.78
2019-03-06T12:39:38.010Z,14.67
2019-03-06T12:42:14.392Z,15.10
2019-03-06T12:44:39.137Z,15.90
2019-03-06T12:47:10.893Z,13.18
2019-03-06T12:49:40.755Z,10.32
2019-03-06T12:52:10.406Z,13.93
2019-03-06T12:54:40.142Z,10.40
2019-03-06T12:57:09.883Z,11.33
2019-03-06T12:59:39.581Z,11.67
2019-03-06T13:02:10.438Z,11.97
2019-03-06T13:04:41.340Z,9.80
2019-03-06T13:07:11.114Z,11.10
2019-03-06T13:09:40.798Z,9.70
2019-03-06T13:12:11.347Z,7.27
2019-03-06T13:14:41.008Z,12.83
2019-03-06T13:17:10.931Z,9.97
2019-03-06T13:19:40.971Z,8.85
2019-03-06T13:22:12.270Z,8.78
2019-03-06T13:24:42.758Z,7.53
2019-03-06T13:27:12.420Z,12.20
2019-03-06T13:29:42.520Z,9.30
2019-03-06T13:32:12.453Z,8.73
2019-03-06T13:34:51.520Z,12.27
2019-03-06T13:37:19.958Z,8.33
2019-03-06T13:39:49.708Z,11.35
2019-03-06T13:42:19.356Z,9.10
2019-03-06T13:44:50.001Z,10.70
2019-03-06T13:47:19.645Z,9.07
2019-03-06T13:49:49.570Z,7.08
2019-03-06T13:52:19.226Z,6.83
2019-03-06T13:54:49.753Z,15.60
2019-03-06T13:57:19.920Z,9.43
2019-03-06T13:59:49.936Z,6.37
2019-03-06T14:02:20.520Z,6.83
2019-03-06T14:04:50.499Z,7.40
2019-03-06T14:07:20.472Z,7.73
2019-03-06T14:09:50.215Z,13.70
2019-03-06T14:12:19.948Z,7.83
2019-03-06T14:14:49.860Z,6.20
2019-03-06T14:17:19.606Z,8.97
2019-03-06T14:19:49.348Z,6.53
2019-03-06T14:22:19.061Z,9.38
2019-03-06T14:24:48.993Z,10.70
2019-03-06T14:27:18.639Z,6.23
2019-03-06T14:29:48.367Z,9.80
2019-03-06T14:32:18.165Z,7.77
2019-03-06T14:34:47.915Z,10.50
2019-03-06T14:37:17.565Z,6.80
2019-03-06T14:39:47.473Z,7.37
2019-03-06T14:42:17.134Z,5.23
2019-03-06T14:44:46.950Z,6.77
2019-03-06T14:47:18.018Z,6.53
2019-03-06T14:49:48.734Z,8.07
2019-03-06T14:52:18.449Z,7.37
2019-03-06T14:54:48.195Z,8.60
2019-03-06T14:57:17.908Z,8.20
2019-03-06T14:59:47.570Z,11.20
2019-03-06T15:02:17.296Z,37.80
2019-03-06T15:04:46.960Z,17.77
2019-03-06T15:07:16.621Z,30.40
2019-03-06T15:09:46.624Z,186.67
2019-03-06T15:12:16.651Z,6.10
2019-03-06T15:14:46.799Z,27.90
2019-03-06T15:17:16.539Z,19.20
2019-03-06T15:19:46.194Z,45.53
2019-03-06T15:22:15.922Z,97.73
2019-03-06T15:24:45.678Z,93.93
2019-03-06T15:27:15.417Z,109.13
2019-03-06T15:29:45.192Z,46.35
2019-03-06T15:32:15.305Z,11.47
2019-03-06T15:34:45.126Z,5.93
2019-03-06T15:37:15.438Z,9.17
2019-03-06T15:39:48.586Z,7.17
2019-03-06T15:42:16.815Z,6.75
2019-03-06T15:44:46.550Z,5.20
2019-03-06T15:47:16.446Z,5.00
2019-03-06T15:49:46.107Z,4.58
2019-03-06T15:52:15.919Z,4.43
2019-03-06T15:54:46.816Z,6.20
2019-03-06T15:57:17.014Z,4.10
2019-03-06T15:59:46.759Z,3.25
2019-03-06T16:02:16.590Z,3.70
2019-03-06T16:04:47.066Z,4.80
2019-03-06T16:07:17.534Z,8.03
2019-03-06T16:09:47.259Z,8.10
2019-03-06T16:12:17.302Z,6.00
2019-03-06T16:14:50.385Z,4.77
2019-03-06T16:17:21.264Z,7.97
2019-03-06T16:19:51.338Z,4.97
2019-03-06T16:22:21.318Z,6.73
2019-03-06T16:24:51.272Z,6.60
2019-03-06T16:27:20.935Z,5.50
2019-03-06T16:29:51.942Z,4.27
2019-03-06T16:32:21.627Z,5.50
2019-03-06T16:34:51.663Z,4.75
2019-03-06T16:37:22.684Z,4.90
2019-03-06T16:39:52.398Z,6.07
2019-03-06T16:42:22.060Z,6.70
2019-03-06T16:44:52.218Z,6.93
2019-03-06T16:47:22.338Z,6.50
2019-03-06T16:49:52.080Z,9.33
2019-03-06T16:52:21.913Z,8.97
2019-03-06T16:54:51.762Z,8.07
2019-03-06T16:57:21.630Z,10.60
2019-03-06T16:59:51.562Z,7.17
2019-03-06T17:02:21.387Z,10.85
2019-03-06T17:04:51.325Z,9.57
2019-03-06T17:07:21.163Z,9.83
2019-03-06T17:09:50.821Z,7.25
2019-03-06T17:12:20.633Z,3.90
2019-03-06T17:14:50.441Z,5.37
2019-03-06T17:17:20.421Z,7.33
2019-03-06T17:19:50.680Z,18.83
2019-03-06T17:22:20.420Z,6.08
2019-03-06T17:24:50.090Z,5.20
2019-03-06T17:27:19.847Z,5.97
2019-03-06T17:29:49.508Z,5.50
2019-03-06T17:32:19.247Z,6.45
2019-03-06T17:34:49.045Z,6.93
2019-03-06T17:37:18.781Z,6.50
2019-03-06T17:39:48.515Z,4.42
2019-03-06T17:42:18.737Z,5.13
2019-03-06T17:44:48.401Z,4.83
2019-03-06T17:47:18.419Z,15.53
2019-03-06T17:49:48.636Z,6.83
2019-03-06T17:52:20.721Z,6.50
2019-03-06T17:54:59.555Z,3.02
2019-03-06T17:57:30.612Z,5.10
2019-03-06T18:00:00.363Z,3.42
2019-03-06T18:02:30.162Z,2.87
2019-03-06T18:05:00.348Z,3.33
2019-03-06T18:07:30.433Z,10.83
2019-03-06T18:10:00.321Z,6.17
2019-03-06T18:12:30.502Z,5.03
2019-03-06T18:15:00.650Z,6.30
2019-03-06T18:17:30.719Z,4.70
2019-03-06T18:20:00.415Z,5.37
2019-03-06T18:22:30.644Z,7.20
2019-03-06T18:25:00.634Z,3.37
2019-03-06T18:27:30.365Z,4.87
2019-03-06T18:30:00.010Z,3.87
2019-03-06T18:32:29.869Z,4.53
2019-03-06T18:35:00.024Z,4.20
2019-03-06T18:37:29.688Z,5.43
2019-03-06T18:39:59.732Z,3.33
2019-03-06T18:42:29.406Z,4.55
2019-03-06T18:44:59.458Z,3.80
2019-03-06T18:47:29.644Z,5.47
2019-03-06T18:49:59.473Z,3.50
2019-03-06T18:52:29.128Z,6.30
2019-03-06T18:55:01.496Z,4.78
2019-03-06T18:57:32.489Z,7.97
2019-03-06T19:00:02.141Z,7.70
2019-03-06T19:02:33.153Z,5.07
2019-03-06T19:05:02.820Z,4.20
2019-03-06T19:07:32.957Z,6.42
2019-03-06T19:10:02.770Z,5.50
2019-03-06T19:12:33.764Z,8.87
2019-03-06T19:15:03.799Z,5.35
2019-03-06T19:17:35.070Z,5.12
2019-03-06T19:20:05.425Z,5.67
2019-03-06T19:22:35.378Z,5.27
2019-03-06T19:25:05.718Z,5.03
2019-03-06T19:27:35.737Z,4.93
2019-03-06T19:30:13.498Z,7.33
2019-03-06T19:32:43.407Z,8.27
2019-03-06T19:35:13.209Z,9.70
2019-03-06T19:37:42.944Z,7.13
2019-03-06T19:40:13.024Z,10.13
2019-03-06T19:42:42.913Z,8.10
2019-03-06T19:45:13.918Z,8.43
2019-03-06T19:47:44.185Z,8.00
2019-03-06T19:50:16.473Z,6.67
2019-03-06T19:52:46.280Z,6.27
2019-03-06T19:55:17.571Z,5.50
2019-03-06T19:57:57.787Z,5.77
2019-03-06T20:00:29.474Z,9.47
2019-03-06T20:02:59.740Z,8.27
2019-03-06T20:05:36.150Z,8.28
2019-03-06T20:08:10.874Z,6.07
2019-03-06T20:10:40.977Z,7.03
2019-03-06T20:13:11.105Z,8.18
2019-03-06T20:15:41.211Z,8.28
2019-03-06T20:18:11.965Z,7.53
2019-03-06T20:20:41.855Z,6.33
2019-03-06T20:23:11.519Z,8.43
2019-03-06T20:25:41.180Z,5.33
2019-03-06T20:28:11.095Z,7.10
2019-03-06T20:30:40.791Z,6.87
2019-03-06T20:33:10.650Z,7.07
2019-03-06T20:35:40.895Z,8.05
2019-03-06T20:38:10.632Z,7.67
2019-03-06T20:40:40.437Z,4.93
2019-03-06T20:43:10.434Z,4.97
2019-03-06T20:45:40.349Z,4.87
2019-03-06T20:48:10.005Z,5.43
2019-03-06T20:50:39.828Z,4.30
2019-03-06T20:53:10.196Z,4.17
2019-03-06T20:55:40.208Z,5.17
2019-03-06T20:58:10.113Z,7.28
2019-03-06T21:00:39.760Z,5.87
2019-03-06T21:03:09.587Z,9.53
2019-03-06T21:05:39.281Z,6.83
2019-03-06T21:08:09.234Z,6.23
2019-03-06T21:10:39.422Z,4.77
2019-03-06T21:13:09.088Z,4.83
2019-03-06T21:15:38.739Z,5.60
2019-03-06T21:18:08.408Z,9.78
2019-03-06T21:20:38.056Z,6.70
2019-03-06T21:23:07.709Z,7.53
2019-03-06T21:25:37.533Z,5.93
2019-03-06T21:28:07.493Z,4.93
2019-03-06T21:30:38.802Z,6.05
2019-03-06T21:33:08.538Z,6.20
2019-03-06T21:35:38.467Z,7.13
2019-03-06T21:38:08.202Z,5.25
2019-03-06T21:40:38.068Z,5.20
2019-03-06T21:43:07.803Z,6.10
2019-03-06T21:45:37.774Z,7.50
2019-03-06T21:48:07.514Z,5.97
2019-03-06T21:50:37.734Z,4.87
2019-03-06T21:53:08.690Z,6.17
2019-03-06T21:55:38.348Z,4.97
2019-03-06T21:58:08.091Z,5.90
2019-03-06T22:00:38.193Z,4.60
2019-03-06T22:03:08.037Z,6.50
2019-03-06T22:05:37.765Z,4.60
2019-03-06T22:08:07.803Z,3.53
2019-03-06T22:10:37.457Z,5.33
2019-03-06T22:13:07.122Z,6.20
2019-03-06T22:15:36.773Z,4.65
2019-03-06T22:18:06.429Z,6.50
2019-03-06T22:20:36.067Z,4.70
2019-03-06T22:23:05.756Z,4.03
2019-03-06T22:25:35.407Z,7.23
2019-03-06T22:28:05.215Z,3.70
2019-03-06T22:30:35.121Z,4.17
2019-03-06T22:33:05.093Z,5.27
2019-03-06T22:35:34.753Z,5.55
2019-03-06T22:38:06.436Z,6.78
2019-03-06T22:40:35.845Z,5.23
2019-03-06T22:43:05.505Z,5.50
2019-03-06T22:45:35.166Z,7.80
2019-03-06T22:48:04.992Z,10.27
2019-03-06T22:50:35.253Z,5.93
2019-03-06T22:53:04.920Z,6.47
2019-03-06T22:55:34.877Z,7.45
2019-03-06T22:58:04.531Z,5.83
2019-03-06T23:01:08.663Z,6.90
2019-03-06T23:03:39.495Z,6.43
2019-03-06T23:06:09.499Z,7.03
2019-03-06T23:08:39.410Z,7.35
2019-03-06T23:11:09.408Z,8.30
2019-03-06T23:13:39.145Z,9.03
2019-03-06T23:16:08.804Z,6.13
2019-03-06T23:18:38.537Z,8.03
2019-03-06T23:21:08.190Z,5.97
2019-03-06T23:23:38.173Z,6.10
2019-03-06T23:26:08.074Z,4.20
2019-03-06T23:28:37.733Z,6.10
2019-03-06T23:31:07.390Z,6.80
2019-03-06T23:33:37.119Z,11.83
2019-03-06T23:36:07.136Z,5.00
2019-03-06T23:38:37.139Z,6.92
2019-03-06T23:41:07.917Z,6.28
2019-03-06T23:43:37.655Z,6.07
2019-03-06T23:46:07.723Z,11.05
2019-03-06T23:48:37.460Z,5.90
2019-03-06T23:51:14.734Z,5.63
2019-03-06T23:53:49.483Z,6.33
2019-03-06T23:56:20.114Z,7.17
2019-03-06T23:58:50.100Z,5.77
